Time;durP1;ratioP1;P1;durP2;ratioP2;P2;SDS_P1;SDS_P2;PMS_P1;PMS_P2;Temp;Humidity;BMP_temperature;BMP_pressure;BME280_temperature;BME280_humidity;BME280_pressure;Samples;Min_cycle;Max_cycle;Signal;HPM_P1;HPM_P2
2023/09/20 00:02:18;;;;;;;1.85;1.25;;;;;;;21.06;61.38;100854.88;4988474;28;20048;-60
2023/09/20 00:04:43;;;;;;;1.52;1.05;;;;;;;21.07;61.07;100847.59;4986873;28;20547;-58
2023/09/20 00:07:08;;;;;;;2.17;1.10;;;;;;;21.06;61.58;100846.75;4990751;28;20045;-58
2023/09/20 00:09:34;;;;;;;2.25;1.25;;;;;;;21.07;61.26;100845.72;4991043;28;20082;-58
2023/09/20 00:12:00;;;;;;;2.20;1.10;;;;;;;21.06;61.30;100848.63;4983605;28;20035;-58
2023/09/20 00:14:26;;;;;;;2.63;1.35;;;;;;;21.06;61.09;100844.06;4996005;28;20074;-58
2023/09/20 00:16:52;;;;;;;1.63;1.05;;;;;;;21.06;61.17;100838.63;4993429;28;20030;-58
2023/09/20 00:19:18;;;;;;;3.03;1.00;;;;;;;21.04;61.51;100843.38;4985121;28;20438;-58
2023/09/20 00:21:44;;;;;;;2.63;1.25;;;;;;;21.05;61.07;100844.22;4993503;28;20077;-58
2023/09/20 00:24:09;;;;;;;2.17;1.10;;;;;;;21.05;61.14;100849.63;4987194;28;20038;-58
2023/09/20 00:26:35;;;;;;;2.08;1.33;;;;;;;21.06;61.42;100844.06;4987469;28;20117;-58
2023/09/20 00:29:06;;;;;;;1.65;1.02;;;;;;;21.05;61.13;100841.50;4991969;28;20519;-58
2023/09/20 00:31:32;;;;;;;1.55;1.10;;;;;;;21.05;61.06;100844.22;4986124;28;20031;-58
2023/09/20 00:33:58;;;;;;;2.15;1.23;;;;;;;21.05;61.22;100839.63;4987223;28;20381;-58
2023/09/20 00:36:24;;;;;;;1.30;1.08;;;;;;;21.04;61.46;100846.06;4989496;28;20493;-58
2023/09/20 00:38:51;;;;;;;1.35;1.13;;;;;;;21.05;61.02;100838.78;4986576;28;20034;-58
2023/09/20 00:41:17;;;;;;;2.00;0.98;;;;;;;21.03;61.26;100838.97;4985977;28;20118;-58
2023/09/20 00:43:43;;;;;;;2.35;1.05;;;;;;;21.03;61.02;100838.97;4992601;28;20149;-58
2023/09/20 00:46:09;;;;;;;3.00;1.25;;;;;;;21.03;61.14;100833.53;4989587;28;20033;-58
2023/09/20 00:48:35;;;;;;;1.20;1.10;;;;;;;21.04;61.03;100831.72;4990546;28;20452;-58
2023/09/20 00:51:02;;;;;;;1.45;1.17;;;;;;;21.03;61.09;100832.72;4992619;28;20036;-58
2023/09/20 00:53:28;;;;;;;1.52;1.20;;;;;;;21.03;61.33;100841.66;4983931;28;20034;-57
2023/09/20 00:55:54;;;;;;;2.00;1.10;;;;;;;21.04;60.95;100837.13;4984416;28;20043;-58
2023/09/20 00:58:20;;;;;;;1.20;1.00;;;;;;;21.02;61.28;100837.28;4989748;28;20046;-58
2023/09/20 01:00:46;;;;;;;2.33;0.88;;;;;;;21.02;60.98;100837.28;4981938;28;20034;-58
2023/09/20 01:03:17;;;;;;;2.28;1.05;;;;;;;21.02;61.28;100826.44;4994116;28;20029;-58
2023/09/20 01:05:46;;;;;;;1.38;1.00;;;;;;;21.02;61.22;100837.28;4985349;28;20367;-60
2023/09/20 01:08:12;;;;;;;2.22;1.20;;;;;;;21.02;61.29;100841.84;4984098;28;20026;-58
2023/09/20 01:10:37;;;;;;;2.20;1.30;;;;;;;21.02;61.32;100840.00;4989721;28;20037;-58
2023/09/20 01:13:05;;;;;;;1.95;1.08;;;;;;;21.01;61.34;100834.72;4986154;28;20038;-58
2023/09/20 01:15:35;;;;;;;0.93;0.90;;;;;;;21.01;61.44;100832.88;4992241;28;20105;-58
2023/09/20 01:18:02;;;;;;;2.33;1.17;;;;;;;21.01;61.30;100835.56;4986027;28;20141;-58
2023/09/20 01:20:30;;;;;;;3.42;1.67;;;;;;;21.01;60.85;100829.31;4987796;28;20047;-58
2023/09/20 01:22:57;;;;;;;1.48;1.23;;;;;;;21.01;60.92;100823.91;4995037;28;20034;-58
2023/09/20 01:25:30;;;;;;;1.35;1.05;;;;;;;21.00;61.31;100822.19;4989900;28;20041;-58
2023/09/20 01:28:01;;;;;;;1.33;1.17;;;;;;;21.00;61.54;100828.47;4989179;28;20046;-59
2023/09/20 01:30:32;;;;;;;2.22;1.30;;;;;;;21.01;60.70;100816.63;4988373;28;20033;-58
2023/09/20 01:32:59;;;;;;;3.03;1.35;;;;;;;21.00;61.29;100820.38;4998828;28;20033;-58
2023/09/20 01:35:29;;;;;;;2.15;1.25;;;;;;;21.00;61.31;100812.25;4998243;28;20037;-58
2023/09/20 01:37:55;;;;;;;1.80;1.15;;;;;;;21.00;61.37;100809.53;4981431;28;20081;-58
2023/09/20 01:40:25;;;;;;;2.00;1.20;;;;;;;21.00;60.91;100812.25;4990084;28;20055;-59
2023/09/20 01:42:52;;;;;;;1.38;1.17;;;;;;;20.99;60.82;100801.56;4984196;28;20037;-58
2023/09/20 01:45:19;;;;;;;7.70;1.50;;;;;;;20.99;61.19;100797.00;4988249;28;20038;-57
2023/09/20 01:47:52;;;;;;;2.28;0.95;;;;;;;20.99;61.24;100805.13;4989317;28;20133;-58
2023/09/20 01:50:25;;;;;;;2.22;1.30;;;;;;;20.99;60.95;100807.00;4983413;28;20097;-58
2023/09/20 01:52:57;;;;;;;1.60;1.10;;;;;;;20.98;61.10;100800.72;4991881;28;20081;-58
2023/09/20 01:55:25;;;;;;;2.60;1.17;;;;;;;20.97;61.18;100796.31;4984056;28;20536;-58
2023/09/20 01:57:51;;;;;;;3.00;1.15;;;;;;;20.98;61.09;100791.75;4981974;28;20050;-58
2023/09/20 02:00:38;;;;;;;2.63;1.40;;;;;;;20.97;61.22;100790.91;4991152;28;20101;-58
2023/09/20 02:03:08;;;;;;;1.77;1.27;;;;;;;20.97;61.19;100780.09;4984379;28;20524;-58
2023/09/20 02:05:34;;;;;;;2.75;1.20;;;;;;;20.96;60.89;100781.13;4989337;28;20365;-58
2023/09/20 02:07:59;;;;;;;2.60;1.10;;;;;;;20.97;61.14;100771.97;4987067;28;20129;-58
2023/09/20 02:10:25;;;;;;;1.00;0.90;;;;;;;20.96;60.77;100756.75;4990004;28;20029;-58
2023/09/20 02:12:54;;;;;;;1.98;1.30;;;;;;;20.96;60.86;100759.47;4988342;28;20031;-58
2023/09/20 02:15:31;;;;;;;3.22;1.52;;;;;;;20.97;60.89;100769.25;4986710;28;20500;-58
2023/09/20 02:17:56;;;;;;;2.53;1.40;;;;;;;20.95;61.04;100752.34;4990009;28;20173;-58
2023/09/20 02:20:23;;;;;;;2.58;1.33;;;;;;;20.97;61.27;100752.19;4991602;28;20026;-58
2023/09/20 02:22:54;;;;;;;2.72;1.38;;;;;;;20.94;61.03;100753.34;4981532;28;20034;-58
2023/09/20 02:25:24;;;;;;;1.58;1.40;;;;;;;20.95;60.70;100765.03;4989158;28;20034;-57
2023/09/20 02:27:57;;;;;;;1.38;1.27;;;;;;;20.96;61.18;100748.63;4982592;28;20062;-58
2023/09/20 02:30:32;;;;;;;3.08;1.13;;;;;;;20.95;60.79;100755.03;4988923;28;20109;-58
2023/09/20 02:32:59;;;;;;;1.83;1.23;;;;;;;20.95;60.87;100749.63;4984800;28;20035;-58
2023/09/20 02:35:26;;;;;;;1.60;0.93;;;;;;;20.94;61.07;100752.50;4986391;28;20109;-58
2023/09/20 02:37:53;;;;;;;1.83;1.20;;;;;;;20.94;60.97;100747.09;4987897;28;20560;-58
2023/09/20 02:40:19;;;;;;;2.15;1.10;;;;;;;20.94;61.22;100753.34;4987111;28;20040;-58
2023/09/20 02:42:46;;;;;;;3.58;1.67;;;;;;;20.93;61.00;100748.94;4987041;28;20117;-58
2023/09/20 02:45:12;;;;;;;1.27;1.02;;;;;;;20.94;61.08;100741.69;4987790;28;20500;-58
2023/09/20 02:47:43;;;;;;;1.70;1.20;;;;;;;20.93;61.08;100745.41;4982582;28;20044;-58
2023/09/20 02:50:10;;;;;;;2.08;1.25;;;;;;;20.92;60.79;100739.13;4991932;28;20400;-58
2023/09/20 02:52:36;;;;;;;4.22;1.38;;;;;;;20.92;60.75;100728.31;4989442;28;20033;-58
2023/09/20 02:55:06;;;;;;;1.80;1.20;;;;;;;20.93;61.15;100734.59;4990531;28;20109;-58
2023/09/20 02:57:32;;;;;;;2.67;1.13;;;;;;;20.94;60.86;100739.81;4991415;28;20097;-58
2023/09/20 02:59:59;;;;;;;3.08;1.40;;;;;;;20.93;60.90;100735.41;4990430;28;20468;-57
2023/09/20 03:02:24;;;;;;;1.08;0.93;;;;;;;20.92;60.81;100727.47;4984610;28;20074;-58
2023/09/20 03:04:53;;;;;;;1.38;1.10;;;;;;;20.93;61.16;100731.88;4996123;28;20400;-58
2023/09/20 03:07:20;;;;;;;1.33;1.20;;;;;;;20.92;60.72;100731.00;4985067;28;20040;-58
2023/09/20 03:09:46;;;;;;;1.88;1.10;;;;;;;20.92;61.46;100728.31;4984508;28;20375;-58
2023/09/20 03:12:13;;;;;;;2.10;1.23;;;;;;;20.91;60.88;100726.63;4990491;28;20386;-58
2023/09/20 03:14:38;;;;;;;2.33;1.30;;;;;;;20.91;61.13;100721.22;4989346;28;20388;-58
2023/09/20 03:17:04;;;;;;;1.65;1.00;;;;;;;20.92;60.86;100722.88;4992508;28;20027;-58
2023/09/20 03:19:31;;;;;;;2.35;1.35;;;;;;;20.92;61.18;100722.88;4988738;28;20031;-58
2023/09/20 03:21:57;;;;;;;1.20;1.00;;;;;;;20.92;60.80;100711.22;4992756;28;20504;-58
2023/09/20 03:24:22;;;;;;;2.20;1.23;;;;;;;20.91;60.81;100704.97;4992290;28;20034;-58
2023/09/20 03:26:51;;;;;;;1.38;1.02;;;;;;;20.92;61.18;100705.81;4989141;28;20048;-58
2023/09/20 03:29:17;;;;;;;1.42;1.02;;;;;;;20.91;60.84;100701.44;4993179;28;20462;-58
2023/09/20 03:31:43;;;;;;;2.35;1.10;;;;;;;20.91;60.84;100710.38;4992424;28;20132;-58
2023/09/20 03:34:10;;;;;;;2.45;1.40;;;;;;;20.91;61.41;100704.13;4984652;28;20117;-58
2023/09/20 03:36:36;;;;;;;1.80;1.15;;;;;;;20.91;61.25;100712.25;4988638;28;20543;-58
2023/09/20 03:39:03;;;;;;;2.55;1.15;;;;;;;20.90;61.33;100714.09;4989134;28;20030;-58
2023/09/20 03:41:29;;;;;;;1.35;1.20;;;;;;;20.91;61.22;100714.97;4991603;28;20065;-58
2023/09/20 03:43:56;;;;;;;2.25;1.15;;;;;;;20.91;61.33;100720.38;4991964;28;20084;-58
2023/09/20 03:46:21;;;;;;;1.60;1.08;;;;;;;20.89;61.31;100718.66;4983319;28;20049;-58
2023/09/20 03:48:47;;;;;;;1.70;1.10;;;;;;;20.89;60.92;100713.25;4994807;28;20469;-58
2023/09/20 03:51:15;;;;;;;4.40;1.63;;;;;;;20.89;60.76;100717.84;4994199;28;20054;-58
2023/09/20 03:53:44;;;;;;;2.35;1.13;;;;;;;20.89;61.14;100710.56;4985230;28;20034;-58
2023/09/20 03:56:11;;;;;;;2.78;1.17;;;;;;;20.89;60.94;100709.72;4990358;28;20042;-58
2023/09/20 03:58:37;;;;;;;1.58;1.00;;;;;;;20.89;60.98;100720.53;4985928;28;20043;-58
2023/09/20 04:01:03;;;;;;;2.35;1.17;;;;;;;20.88;60.76;100716.97;4989028;28;20041;-58
2023/09/20 04:03:28;;;;;;;2.13;1.20;;;;;;;20.88;61.25;100722.38;4990891;28;20034;-58
2023/09/20 04:05:57;;;;;;;1.88;1.33;;;;;;;20.87;60.84;100709.88;4986432;28;20081;-58
2023/09/20 04:08:22;;;;;;;1.55;1.27;;;;;;;20.88;61.34;100713.41;4987960;28;20041;-58
2023/09/20 04:10:48;;;;;;;2.17;1.30;;;;;;;20.87;60.76;100720.69;4992962;28;20038;-58
2023/09/20 04:13:14;;;;;;;1.30;1.20;;;;;;;20.88;61.05;100716.97;4987181;28;20072;-58
2023/09/20 04:15:42;;;;;;;1.67;1.30;;;;;;;20.87;61.27;100709.03;4989099;28;20496;-58
2023/09/20 04:18:08;;;;;;;1.30;0.90;;;;;;;20.86;61.20;100710.03;4988584;28;20083;-58
2023/09/20 04:20:34;;;;;;;1.52;1.15;;;;;;;20.88;61.35;100705.31;4989352;28;20044;-58
2023/09/20 04:22:59;;;;;;;1.25;1.15;;;;;;;20.86;61.61;100697.34;4990040;28;20030;-58
2023/09/20 04:25:25;;;;;;;1.20;1.10;;;;;;;20.87;61.16;100695.50;4990290;28;20116;-58
2023/09/20 04:27:50;;;;;;;1.40;1.17;;;;;;;20.86;60.73;100691.09;4990020;28;20046;-58
2023/09/20 04:30:17;;;;;;;2.25;1.30;;;;;;;20.86;60.76;100693.81;4983996;28;20392;-58
2023/09/20 04:32:43;;;;;;;2.00;1.20;;;;;;;20.85;60.97;100682.13;4982367;28;20030;-58
2023/09/20 04:35:09;;;;;;;3.50;0.88;;;;;;;20.85;60.82;100684.84;4992140;28;20057;-58
2023/09/20 04:37:34;;;;;;;2.28;1.17;;;;;;;20.85;61.22;100678.59;4984068;28;20122;-58
2023/09/20 04:40:00;;;;;;;1.77;1.30;;;;;;;20.84;61.21;100672.31;4989300;28;20481;-58
2023/09/20 04:42:27;;;;;;;2.00;1.35;;;;;;;20.84;60.94;100676.88;4988028;28;20121;-58
2023/09/20 04:44:53;;;;;;;3.17;1.20;;;;;;;20.84;61.20;100677.72;4986045;28;20589;-58
2023/09/20 04:47:19;;;;;;;3.03;1.27;;;;;;;20.83;60.71;100670.63;4994888;28;20088;-58
2023/09/20 04:49:45;;;;;;;1.27;1.00;;;;;;;20.83;61.07;100672.50;4986937;28;20469;-58
2023/09/20 04:52:11;;;;;;;1.30;1.20;;;;;;;20.83;61.09;100669.81;4987066;28;20029;-58
2023/09/20 04:54:37;;;;;;;2.40;1.60;;;;;;;20.83;60.98;100673.34;4991377;28;20531;-58
2023/09/20 04:57:04;;;;;;;2.28;1.30;;;;;;;20.83;61.07;100677.91;4985270;28;20030;-58
2023/09/20 04:59:31;;;;;;;1.75;1.27;;;;;;;20.82;60.73;100682.47;4984460;28;20447;-58
2023/09/20 05:01:56;;;;;;;1.80;1.20;;;;;;;20.83;61.17;100675.22;4990050;28;20035;-58
2023/09/20 05:04:22;;;;;;;2.22;1.20;;;;;;;20.83;61.11;100672.50;4990993;28;20034;-58
2023/09/20 05:06:48;;;;;;;1.30;1.20;;;;;;;20.83;61.00;100670.63;4989255;28;20033;-58
2023/09/20 05:09:13;;;;;;;2.47;1.40;;;;;;;20.82;60.84;100677.06;4988820;28;20026;-58
2023/09/20 05:11:39;;;;;;;3.47;1.50;;;;;;;20.82;61.26;100678.91;4987906;28;20037;-58
2023/09/20 05:14:07;;;;;;;2.58;1.25;;;;;;;20.81;60.91;100678.09;4986949;28;20053;-58
2023/09/20 05:16:33;;;;;;;1.92;1.38;;;;;;;20.81;60.89;100677.22;4988616;28;20090;-58
2023/09/20 05:18:59;;;;;;;2.35;1.10;;;;;;;20.81;61.23;100678.09;4985638;28;20444;-58
2023/09/20 05:21:25;;;;;;;1.63;1.15;;;;;;;20.80;60.90;100679.09;4991091;28;20565;-58
2023/09/20 05:23:50;;;;;;;3.40;1.20;;;;;;;20.81;61.23;100674.50;4986501;28;20113;-58
2023/09/20 05:26:15;;;;;;;2.25;1.10;;;;;;;20.81;60.77;100671.81;4989012;28;20042;-58
2023/09/20 05:28:41;;;;;;;2.60;1.40;;;;;;;20.82;61.25;100678.91;4986789;28;20031;-58
2023/09/20 05:31:06;;;;;;;1.92;1.23;;;;;;;20.82;61.37;100670.81;4981379;28;20493;-58
2023/09/20 05:33:32;;;;;;;1.60;1.17;;;;;;;20.81;61.32;100669.97;4994139;28;20030;-58
2023/09/20 05:35:58;;;;;;;1.88;1.10;;;;;;;20.81;61.38;100672.69;4983155;28;20113;-58
2023/09/20 05:38:25;;;;;;;1.75;1.10;;;;;;;20.80;60.92;100668.25;4984749;28;20070;-58
2023/09/20 05:40:50;;;;;;;2.58;1.33;;;;;;;20.81;60.70;100660.97;4990168;28;20027;-58
2023/09/20 05:43:16;;;;;;;1.73;1.23;;;;;;;20.81;61.11;100663.69;4986822;28;20041;-58
2023/09/20 05:45:42;;;;;;;1.30;1.20;;;;;;;20.80;61.09;100662.00;4990365;28;20432;-59
2023/09/20 05:48:10;;;;;;;1.10;1.00;;;;;;;20.80;60.83;100668.25;4985531;28;20118;-58
2023/09/20 05:50:36;;;;;;;1.45;1.00;;;;;;;20.80;61.14;100665.56;4988540;28;20547;-58
2023/09/20 05:53:06;;;;;;;2.38;1.45;;;;;;;20.81;60.80;100650.16;4988492;28;20062;-58
2023/09/20 05:55:35;;;;;;;2.35;1.27;;;;;;;20.81;60.69;100655.56;4985551;28;20026;-58
2023/09/20 05:58:02;;;;;;;2.95;1.10;;;;;;;20.80;61.07;100660.16;4983170;28;20076;-58
2023/09/20 06:00:29;;;;;;;2.35;1.52;;;;;;;20.80;61.11;100660.16;4985203;28;20069;-58
2023/09/20 06:02:56;;;;;;;3.40;1.40;;;;;;;20.80;60.81;100667.44;4986691;28;20024;-58
2023/09/20 06:05:24;;;;;;;1.90;1.10;;;;;;;20.81;60.79;100669.09;4992549;28;20034;-59
2023/09/20 06:07:49;;;;;;;2.80;1.23;;;;;;;20.82;60.98;100662.69;4985568;28;20472;-58
2023/09/20 06:10:17;;;;;;;1.65;1.23;;;;;;;20.83;61.21;100656.28;4987036;28;20041;-58
2023/09/20 06:12:42;;;;;;;2.30;1.60;;;;;;;20.83;61.51;100653.56;4990700;28;20109;-58
2023/09/20 06:15:08;;;;;;;2.80;1.35;;;;;;;20.81;61.36;100659.16;4988031;28;20108;-58
2023/09/20 06:17:34;;;;;;;1.80;1.40;;;;;;;20.81;61.77;100651.03;4981354;28;20066;-58
2023/09/20 06:20:07;;;;;;;2.28;1.33;;;;;;;20.81;61.89;100653.72;4993341;28;20100;-58
2023/09/20 06:22:33;;;;;;;3.55;1.40;;;;;;;20.82;61.69;100646.44;4983907;28;20058;-58
2023/09/20 06:24:59;;;;;;;1.98;1.10;;;;;;;20.82;61.57;100651.88;4986394;28;20563;-58
2023/09/20 06:27:30;;;;;;;1.67;1.10;;;;;;;20.82;61.92;100649.16;4992091;28;20129;-58
2023/09/20 06:29:59;;;;;;;2.03;1.27;;;;;;;20.82;62.10;100652.69;4992303;28;20084;-58
2023/09/20 06:32:25;;;;;;;1.83;1.20;;;;;;;20.82;61.91;100658.13;4991377;28;20046;-58
2023/09/20 06:34:51;;;;;;;2.40;1.25;;;;;;;20.82;61.73;100657.28;4990721;28;20447;-58
2023/09/20 06:37:16;;;;;;;2.13;1.20;;;;;;;20.83;61.86;100658.97;4988708;28;20455;-58
2023/09/20 06:39:43;;;;;;;1.70;0.90;;;;;;;20.83;61.87;100669.81;4991799;28;20037;-58
2023/09/20 06:42:09;;;;;;;2.30;1.15;;;;;;;20.83;61.78;100664.41;4989574;28;20081;-58
2023/09/20 06:44:40;;;;;;;2.35;1.40;;;;;;;20.83;61.81;100659.81;4987953;28;20059;-58
2023/09/20 06:47:07;;;;;;;2.67;1.38;;;;;;;20.84;61.86;100663.38;4990424;28;20495;-58
2023/09/20 06:49:32;;;;;;;1.60;1.30;;;;;;;20.84;61.78;100666.06;4990030;28;20088;-58
2023/09/20 06:52:01;;;;;;;1.83;1.30;;;;;;;20.84;62.11;100660.66;4991819;28;20038;-58
2023/09/20 06:54:28;;;;;;;2.00;1.20;;;;;;;20.84;62.13;100661.50;4990500;28;20388;-58
2023/09/20 06:56:55;;;;;;;2.55;1.23;;;;;;;20.85;61.74;100659.66;4993983;28;20535;-58
2023/09/20 06:59:20;;;;;;;1.77;1.08;;;;;;;20.85;62.05;100662.38;4993273;28;20038;-58
2023/09/20 07:01:47;;;;;;;2.42;1.30;;;;;;;20.86;62.43;100666.75;4987230;28;20480;-58
2023/09/20 07:04:12;;;;;;;1.88;1.25;;;;;;;20.86;62.25;100650.50;4986286;28;20429;-58
2023/09/20 07:06:38;;;;;;;1.92;1.23;;;;;;;20.88;61.94;100662.00;4994258;28;20165;-58
2023/09/20 07:09:08;;;;;;;2.30;1.25;;;;;;;20.88;62.52;100662.84;4985460;28;20062;-58
2023/09/20 07:11:34;;;;;;;1.52;1.30;;;;;;;20.89;62.53;100669.97;5002812;28;20040;-58
2023/09/20 07:14:01;;;;;;;2.90;1.63;;;;;;;20.90;62.17;100659.97;4988225;28;20038;-58
2023/09/20 07:16:26;;;;;;;5.75;1.70;;;;;;;20.90;62.17;100643.72;4990808;28;20026;-58
2023/09/20 07:18:52;;;;;;;2.70;1.30;;;;;;;20.89;62.52;100651.00;4996484;28;20466;-58
2023/09/20 07:21:17;;;;;;;3.40;1.45;;;;;;;20.89;62.54;100637.47;4988601;28;20388;-58
2023/09/20 07:23:43;;;;;;;1.92;1.42;;;;;;;20.91;62.06;100650.84;4986116;28;20364;-58
2023/09/20 07:26:08;;;;;;;2.75;1.40;;;;;;;20.91;62.61;100648.13;4991424;28;20038;-58
2023/09/20 07:28:36;;;;;;;1.60;1.42;;;;;;;20.91;62.43;100650.84;4989566;28;20048;-58
2023/09/20 07:31:03;;;;;;;2.22;1.48;;;;;;;20.91;62.24;100656.25;4991940;28;20566;-58
2023/09/20 07:33:31;;;;;;;2.85;1.60;;;;;;;20.92;62.55;100654.38;4990757;28;20117;-58
2023/09/20 07:36:00;;;;;;;2.50;1.40;;;;;;;20.91;61.96;100656.25;4989061;28;20030;-58
2023/09/20 07:38:28;;;;;;;1.67;1.23;;;;;;;20.92;62.43;100641.69;4991410;28;20030;-58
2023/09/20 07:41:05;;;;;;;2.97;1.40;;;;;;;20.94;62.21;100649.66;4985973;28;20039;-58
2023/09/20 07:43:30;;;;;;;2.47;1.50;;;;;;;20.94;62.13;100650.47;4994759;28;20034;-58
2023/09/20 07:46:00;;;;;;;3.40;1.20;;;;;;;20.95;62.06;100654.06;4986891;28;20038;-58
2023/09/20 07:48:27;;;;;;;2.35;1.13;;;;;;;20.96;62.40;100653.91;4985457;28;20038;-58
2023/09/20 07:50:53;;;;;;;2.30;1.23;;;;;;;20.95;62.31;100660.31;4992181;28;20113;-58
2023/09/20 07:53:19;;;;;;;1.55;1.23;;;;;;;20.95;62.23;100654.91;4987412;28;20058;-58
2023/09/20 07:55:57;;;;;;;1.58;1.40;;;;;;;20.98;62.18;100651.00;4993543;28;20034;-58
2023/09/20 07:58:23;;;;;;;2.80;0.95;;;;;;;20.97;62.48;100649.31;4988447;28;20051;-58
2023/09/20 08:00:51;;;;;;;1.38;1.20;;;;;;;20.98;62.40;100642.88;4986161;28;20054;-58
2023/09/20 08:03:18;;;;;;;2.20;1.63;;;;;;;20.97;62.77;100644.75;4987051;28;20061;-58
2023/09/20 08:05:44;;;;;;;2.60;1.63;;;;;;;20.98;62.56;100646.44;4991145;28;20054;-58
2023/09/20 08:08:10;;;;;;;2.70;1.88;;;;;;;20.99;62.34;100648.13;4987740;28;20357;-58
2023/09/20 08:10:37;;;;;;;1.50;1.40;;;;;;;20.99;62.72;100648.13;4992255;28;20050;-58
2023/09/20 08:13:04;;;;;;;2.40;1.17;;;;;;;20.99;62.44;100653.53;4988181;28;20112;-58
2023/09/20 08:15:52;;;;;;;1.65;1.20;;;;;;;21.00;62.59;100652.53;4989816;28;20040;-58
2023/09/20 08:21:03;;;;;;;2.08;1.33;;;;;;;21.01;62.75;100662.31;4988514;28;20095;-58
2023/09/20 09:01:57;;;;;;;1.90;1.20;;;;;;;21.08;62.88;100659.78;4991130;28;20048;-58
2023/09/20 09:04:22;;;;;;;2.88;1.45;;;;;;;21.07;62.97;100672.47;4988549;28;20034;-58
2023/09/20 09:06:48;;;;;;;1.63;1.30;;;;;;;21.09;62.89;100670.47;4983170;28;20126;-58
2023/09/20 09:09:13;;;;;;;2.15;1.88;;;;;;;21.11;62.49;100658.59;4988812;28;20167;-58
2023/09/20 09:11:38;;;;;;;2.55;1.48;;;;;;;21.10;62.78;100660.47;4985226;28;20466;-58
2023/09/20 09:14:05;;;;;;;4.30;1.75;;;;;;;21.12;62.60;100668.44;4979171;28;20104;-58
2023/09/20 09:16:32;;;;;;;2.55;1.40;;;;;;;21.11;62.50;100658.59;4990702;28;20034;-58
2023/09/20 09:18:58;;;;;;;1.15;1.05;;;;;;;21.12;62.40;100668.44;4981784;28;20031;-58
2023/09/20 09:21:25;;;;;;;1.90;1.70;;;;;;;21.11;62.40;100659.44;4989536;28;20042;-58
2023/09/20 09:23:50;;;;;;;2.15;1.50;;;;;;;21.11;62.65;100650.47;4987471;28;20070;-58
2023/09/20 09:26:16;;;;;;;2.60;1.75;;;;;;;21.11;62.46;100651.31;4986023;28;20077;-58
2023/09/20 09:28:44;;;;;;;3.17;1.85;;;;;;;21.12;62.90;100661.13;4992228;28;20477;-58
2023/09/20 09:31:09;;;;;;;1.67;1.45;;;;;;;21.13;62.86;100664.69;4984084;28;20041;-58
2023/09/20 09:33:38;;;;;;;2.05;1.35;;;;;;;21.12;62.56;100658.44;4984087;28;20041;-58
2023/09/20 09:36:04;;;;;;;2.55;1.40;;;;;;;21.12;62.69;100660.31;4985701;28;20030;-58
2023/09/20 09:38:33;;;;;;;1.55;1.45;;;;;;;21.13;62.72;100653.84;4985949;28;20468;-58
2023/09/20 09:40:59;;;;;;;4.05;1.77;;;;;;;21.14;62.44;100647.44;4983043;28;20109;-58
2023/09/20 09:43:31;;;;;;;1.77;1.50;;;;;;;21.14;62.90;100647.44;4988882;28;20065;-58
2023/09/20 09:46:08;;;;;;;2.67;1.35;;;;;;;21.15;62.79;100639.16;4989056;28;20033;-58
2023/09/20 09:48:37;;;;;;;2.90;1.33;;;;;;;21.15;62.40;100647.28;4988625;28;20102;-58
2023/09/20 09:51:06;;;;;;;4.25;1.40;;;;;;;21.16;62.77;100648.09;4983465;28;20066;-58
2023/09/20 09:53:34;;;;;;;1.45;1.35;;;;;;;21.17;62.30;100641.66;4990852;28;20122;-58
2023/09/20 09:56:04;;;;;;;2.33;1.27;;;;;;;21.16;62.11;100630.00;4985167;28;20105;-58
2023/09/20 09:58:29;;;;;;;1.65;1.40;;;;;;;21.18;62.63;100635.25;4981983;28;20456;-58
2023/09/20 10:00:56;;;;;;;2.60;1.60;;;;;;;21.18;62.14;100619.00;4989226;28;20030;-58
2023/09/20 10:03:29;;;;;;;2.17;1.42;;;;;;;21.19;62.57;100626.09;4987003;28;20026;-58
2023/09/20 10:06:16;;;;;;;3.60;1.67;;;;;;;21.20;62.57;100622.38;4985124;28;20093;-58
2023/09/20 10:08:42;;;;;;;3.17;1.50;;;;;;;21.19;62.61;100617.97;4988508;28;20484;-58
2023/09/20 10:11:09;;;;;;;3.08;1.63;;;;;;;21.20;62.29;100627.78;4985982;28;20472;-58
2023/09/20 10:13:36;;;;;;;1.65;1.30;;;;;;;21.20;62.43;100627.78;4984052;28;20030;-58
2023/09/20 10:16:04;;;;;;;2.15;1.58;;;;;;;21.20;62.56;100623.22;4988677;28;20401;-58
2023/09/20 10:18:54;;;;;;;2.55;1.40;;;;;;;21.24;62.15;100626.41;4986758;28;20026;-58
2023/09/20 10:21:25;;;;;;;3.05;1.40;;;;;;;21.23;62.52;100622.03;4991393;28;20345;-58
2023/09/20 10:23:58;;;;;;;2.75;1.40;;;;;;;21.23;62.52;100616.63;4983789;28;20030;-58
2023/09/20 10:26:23;;;;;;;1.95;1.50;;;;;;;21.24;62.50;100612.88;4989628;28;20124;-58
2023/09/20 10:28:52;;;;;;;1.60;1.50;;;;;;;21.24;62.15;100618.28;4987257;28;20480;-58
2023/09/20 10:31:20;;;;;;;3.83;1.60;;;;;;;21.25;62.64;100611.88;4985229;28;20034;-58
2023/09/20 10:33:45;;;;;;;2.72;1.70;;;;;;;21.27;62.46;100609.84;4993607;28;20026;-58
2023/09/20 10:36:20;;;;;;;1.90;1.40;;;;;;;21.26;62.54;100610.84;4980666;28;20085;-58
2023/09/20 10:38:47;;;;;;;1.85;1.63;;;;;;;21.26;62.31;100610.84;4984322;28;20433;-58
2023/09/20 10:41:14;;;;;;;2.28;1.48;;;;;;;21.27;62.62;100596.28;4985775;28;20038;-58
2023/09/20 10:43:40;;;;;;;1.83;1.50;;;;;;;21.28;62.17;100603.38;4985943;28;20122;-58
2023/09/20 10:46:14;;;;;;;1.50;1.27;;;;;;;21.27;62.11;100588.16;4990408;28;20030;-58
2023/09/20 10:48:51;;;;;;;2.00;1.50;;;;;;;21.28;62.10;100576.31;4987752;28;20076;-58
2023/09/20 10:51:39;;;;;;;2.25;1.55;;;;;;;21.31;62.57;100591.38;4986690;28;20035;-58
2023/09/20 10:54:30;;;;;;;2.38;1.50;;;;;;;21.31;62.16;100583.25;4987665;28;20035;-58
2023/09/20 10:57:04;;;;;;;1.67;1.52;;;;;;;21.29;62.61;100586.97;4990713;28;20045;-58
2023/09/20 10:59:31;;;;;;;3.65;1.77;;;;;;;21.30;62.17;100576.97;4981727;28;20466;-58
2023/09/20 11:02:08;;;;;;;3.22;1.52;;;;;;;21.30;62.42;100582.38;4988538;28;20051;-58
2023/09/20 11:04:35;;;;;;;2.33;1.55;;;;;;;21.30;62.58;100579.69;4987383;28;20037;-58
2023/09/20 11:07:02;;;;;;;3.00;1.50;;;;;;;21.29;62.71;100576.13;4980654;28;20042;-58
2023/09/20 11:09:31;;;;;;;1.85;1.42;;;;;;;21.32;62.31;100574.09;4988052;28;20039;-58
2023/09/20 11:12:06;;;;;;;1.80;1.23;;;;;;;21.32;62.53;100571.38;4990927;28;20072;-58
2023/09/20 11:14:42;;;;;;;2.17;1.45;;;;;;;21.33;62.44;100573.09;4991648;28;20034;-58
2023/09/20 11:17:12;;;;;;;2.15;1.58;;;;;;;21.33;62.64;100570.38;4984991;28;20034;-58
2023/09/20 11:19:38;;;;;;;2.13;1.40;;;;;;;21.33;62.65;100573.94;4992602;28;20033;-58
2023/09/20 11:22:04;;;;;;;3.67;1.60;;;;;;;21.34;62.42;100580.19;4985174;28;20027;-58
2023/09/20 11:24:29;;;;;;;2.00;1.23;;;;;;;21.33;62.46;100571.22;4981613;28;20157;-58
2023/09/20 11:26:56;;;;;;;3.50;1.60;;;;;;;21.35;62.46;100571.06;4991033;28;20026;-58
2023/09/20 11:29:23;;;;;;;3.08;1.35;;;;;;;21.34;62.62;100562.06;4984988;28;20035;-58
2023/09/20 11:31:50;;;;;;;4.05;1.60;;;;;;;21.35;62.63;100574.59;4994640;28;20041;-58
2023/09/20 11:34:19;;;;;;;1.42;1.30;;;;;;;21.35;62.54;100573.75;4988285;28;20038;-58
2023/09/20 11:36:46;;;;;;;1.50;1.27;;;;;;;21.35;62.31;100576.47;4986560;28;20030;-58
2023/09/20 11:39:17;;;;;;;2.28;1.27;;;;;;;21.35;62.58;100574.59;4991380;28;20026;-58
2023/09/20 11:41:44;;;;;;;2.58;1.52;;;;;;;21.35;62.04;100566.47;4986778;28;20450;-58
2023/09/20 11:44:09;;;;;;;2.80;1.50;;;;;;;21.36;62.17;100565.47;4986119;28;20034;-58
2023/09/20 11:46:35;;;;;;;1.83;1.35;;;;;;;21.36;62.28;100570.88;4991855;28;20370;-58
2023/09/20 11:49:02;;;;;;;2.58;1.40;;;;;;;21.37;62.59;100572.56;4988757;28;20377;-58
2023/09/20 11:51:36;;;;;;;2.72;1.67;;;;;;;21.38;62.33;100566.13;4986194;28;20473;-58
2023/09/20 11:54:10;;;;;;;1.92;1.33;;;;;;;21.37;62.59;100569.84;4987202;28;20073;-58
2023/09/20 11:56:37;;;;;;;1.38;1.23;;;;;;;21.37;62.46;100575.25;4990618;28;20406;-58
2023/09/20 11:59:09;;;;;;;2.20;1.60;;;;;;;21.38;62.28;100571.53;4987849;28;20057;-58
2023/09/20 12:01:40;;;;;;;1.98;1.30;;;;;;;21.38;62.24;100566.13;4987092;28;20117;-58
2023/09/20 12:04:06;;;;;;;2.80;1.33;;;;;;;21.39;62.59;100575.94;4984227;28;20035;-58
2023/09/20 12:06:32;;;;;;;2.40;1.33;;;;;;;21.38;62.40;100576.97;4992751;28;20045;-58
2023/09/20 12:09:00;;;;;;;3.17;1.70;;;;;;;21.39;62.48;100580.50;4984307;28;20039;-58